sensor_id;sensor_type;location;lat;lon;timestamp;temperature;humidity
47861;HTU21D;33620;52.340;5.984;2024-02-21T00:00:36;9.74;92.54
47861;HTU21D;33620;52.340;5.984;2024-02-21T00:03:03;9.78;92.47
47861;HTU21D;33620;52.340;5.984;2024-02-21T00:05:29;9.79;92.55
47861;HTU21D;33620;52.340;5.984;2024-02-21T00:07:54;9.69;92.70
47861;HTU21D;33620;52.340;5.984;2024-02-21T00:10:20;9.72;92.59
47861;HTU21D;33620;52.340;5.984;2024-02-21T00:12:45;9.75;92.59
47861;HTU21D;33620;52.340;5.984;2024-02-21T00:15:11;9.69;92.62
47861;HTU21D;33620;52.340;5.984;2024-02-21T00:17:36;9.74;92.55
47861;HTU21D;33620;52.340;5.984;2024-02-21T00:20:01;9.75;92.45
47861;HTU21D;33620;52.340;5.984;2024-02-21T00:22:27;9.74;92.34
47861;HTU21D;33620;52.340;5.984;2024-02-21T00:24:54;9.75;92.19
47861;HTU21D;33620;52.340;5.984;2024-02-21T00:27:19;9.72;92.21
47861;HTU21D;33620;52.340;5.984;2024-02-21T00:29:44;9.76;92.18
47861;HTU21D;33620;52.340;5.984;2024-02-21T00:32:10;9.78;92.16
47861;HTU21D;33620;52.340;5.984;2024-02-21T00:34:35;9.71;92.20
47861;HTU21D;33620;52.340;5.984;2024-02-21T00:37:00;9.70;92.39
47861;HTU21D;33620;52.340;5.984;2024-02-21T00:39:26;9.79;92.22
47861;HTU21D;33620;52.340;5.984;2024-02-21T00:41:51;9.69;92.24
47861;HTU21D;33620;52.340;5.984;2024-02-21T00:44:16;9.69;92.29
47861;HTU21D;33620;52.340;5.984;2024-02-21T00:46:42;9.66;92.30
47861;HTU21D;33620;52.340;5.984;2024-02-21T00:49:07;9.74;92.18
47861;HTU21D;33620;52.340;5.984;2024-02-21T00:51:32;9.74;92.21
47861;HTU21D;33620;52.340;5.984;2024-02-21T00:53:57;9.70;92.36
47861;HTU21D;33620;52.340;5.984;2024-02-21T00:56:23;9.70;92.30
47861;HTU21D;33620;52.340;5.984;2024-02-21T00:58:48;9.76;92.21
47861;HTU21D;33620;52.340;5.984;2024-02-21T01:01:20;9.67;92.41
47861;HTU21D;33620;52.340;5.984;2024-02-21T01:03:45;9.66;92.41
47861;HTU21D;33620;52.340;5.984;2024-02-21T01:06:10;9.69;92.33
47861;HTU21D;33620;52.340;5.984;2024-02-21T01:08:36;9.68;92.40
47861;HTU21D;33620;52.340;5.984;2024-02-21T01:11:01;9.69;92.39
47861;HTU21D;33620;52.340;5.984;2024-02-21T01:13:26;9.63;92.48
47861;HTU21D;33620;52.340;5.984;2024-02-21T01:15:52;9.66;92.52
47861;HTU21D;33620;52.340;5.984;2024-02-21T01:18:17;9.66;92.30
47861;HTU21D;33620;52.340;5.984;2024-02-21T01:20:42;9.78;92.11
47861;HTU21D;33620;52.340;5.984;2024-02-21T01:23:08;9.78;92.05
47861;HTU21D;33620;52.340;5.984;2024-02-21T01:25:33;9.77;92.05
47861;HTU21D;33620;52.340;5.984;2024-02-21T01:27:58;9.69;92.34
47861;HTU21D;33620;52.340;5.984;2024-02-21T01:30:23;9.69;92.20
47861;HTU21D;33620;52.340;5.984;2024-02-21T01:32:49;9.68;92.34
47861;HTU21D;33620;52.340;5.984;2024-02-21T01:35:14;9.69;92.37
47861;HTU21D;33620;52.340;5.984;2024-02-21T01:37:39;9.71;92.26
47861;HTU21D;33620;52.340;5.984;2024-02-21T01:40:05;9.72;92.28
47861;HTU21D;33620;52.340;5.984;2024-02-21T01:42:30;9.67;92.42
47861;HTU21D;33620;52.340;5.984;2024-02-21T01:44:55;9.65;92.49
47861;HTU21D;33620;52.340;5.984;2024-02-21T01:47:21;9.69;92.51
47861;HTU21D;33620;52.340;5.984;2024-02-21T01:49:46;9.63;92.56
47861;HTU21D;33620;52.340;5.984;2024-02-21T01:52:11;9.66;92.50
47861;HTU21D;33620;52.340;5.984;2024-02-21T01:54:38;9.65;92.58
47861;HTU21D;33620;52.340;5.984;2024-02-21T01:57:04;9.57;92.76
47861;HTU21D;33620;52.340;5.984;2024-02-21T01:59:30;9.62;92.63
47861;HTU21D;33620;52.340;5.984;2024-02-21T02:01:55;9.64;92.58
47861;HTU21D;33620;52.340;5.984;2024-02-21T02:04:22;9.63;92.38
47861;HTU21D;33620;52.340;5.984;2024-02-21T02:06:47;9.66;92.38
47861;HTU21D;33620;52.340;5.984;2024-02-21T02:09:13;9.72;92.37
47861;HTU21D;33620;52.340;5.984;2024-02-21T02:11:38;9.69;92.43
47861;HTU21D;33620;52.340;5.984;2024-02-21T02:14:04;9.68;92.41
47861;HTU21D;33620;52.340;5.984;2024-02-21T02:16:29;9.68;92.42
47861;HTU21D;33620;52.340;5.984;2024-02-21T02:18:54;9.68;92.37
47861;HTU21D;33620;52.340;5.984;2024-02-21T02:21:24;9.69;92.32
47861;HTU21D;33620;52.340;5.984;2024-02-21T02:23:51;9.66;92.25
47861;HTU21D;33620;52.340;5.984;2024-02-21T02:26:16;9.68;92.29
47861;HTU21D;33620;52.340;5.984;2024-02-21T02:28:42;9.66;92.35
47861;HTU21D;33620;52.340;5.984;2024-02-21T02:31:07;9.66;92.35
47861;HTU21D;33620;52.340;5.984;2024-02-21T02:33:32;9.72;92.28
47861;HTU21D;33620;52.340;5.984;2024-02-21T02:35:57;9.63;92.38
47861;HTU21D;33620;52.340;5.984;2024-02-21T02:38:23;9.59;92.37
47861;HTU21D;33620;52.340;5.984;2024-02-21T02:40:49;9.64;92.39
47861;HTU21D;33620;52.340;5.984;2024-02-21T02:43:14;9.69;92.34
47861;HTU21D;33620;52.340;5.984;2024-02-21T02:45:40;9.66;92.22
47861;HTU21D;33620;52.340;5.984;2024-02-21T02:48:05;9.59;92.42
47861;HTU21D;33620;52.340;5.984;2024-02-21T02:50:31;9.60;92.49
47861;HTU21D;33620;52.340;5.984;2024-02-21T02:52:56;9.67;92.33
47861;HTU21D;33620;52.340;5.984;2024-02-21T02:55:22;9.72;92.21
47861;HTU21D;33620;52.340;5.984;2024-02-21T02:57:47;9.67;92.25
47861;HTU21D;33620;52.340;5.984;2024-02-21T03:00:13;9.66;92.34
47861;HTU21D;33620;52.340;5.984;2024-02-21T03:02:39;9.72;92.15
47861;HTU21D;33620;52.340;5.984;2024-02-21T03:05:11;9.66;92.21
47861;HTU21D;33620;52.340;5.984;2024-02-21T03:07:36;9.70;92.16
47861;HTU21D;33620;52.340;5.984;2024-02-21T03:10:02;9.71;92.21
47861;HTU21D;33620;52.340;5.984;2024-02-21T03:12:27;9.69;92.22
47861;HTU21D;33620;52.340;5.984;2024-02-21T03:14:54;9.71;92.14
47861;HTU21D;33620;52.340;5.984;2024-02-21T03:17:19;9.70;92.25
47861;HTU21D;33620;52.340;5.984;2024-02-21T03:19:44;9.70;92.21
47861;HTU21D;33620;52.340;5.984;2024-02-21T03:22:10;9.72;92.08
47861;HTU21D;33620;52.340;5.984;2024-02-21T03:24:35;9.74;92.04
47861;HTU21D;33620;52.340;5.984;2024-02-21T03:27:00;9.67;92.14
47861;HTU21D;33620;52.340;5.984;2024-02-21T03:29:26;9.71;92.14
47861;HTU21D;33620;52.340;5.984;2024-02-21T03:31:51;9.68;92.28
47861;HTU21D;33620;52.340;5.984;2024-02-21T03:34:16;9.74;92.21
47861;HTU21D;33620;52.340;5.984;2024-02-21T03:36:42;9.67;92.31
47861;HTU21D;33620;52.340;5.984;2024-02-21T03:39:07;9.69;92.30
47861;HTU21D;33620;52.340;5.984;2024-02-21T03:41:34;9.74;92.30
47861;HTU21D;33620;52.340;5.984;2024-02-21T03:43:59;9.72;92.27
47861;HTU21D;33620;52.340;5.984;2024-02-21T03:46:25;9.79;92.32
47861;HTU21D;33620;52.340;5.984;2024-02-21T03:48:50;9.78;92.30
47861;HTU21D;33620;52.340;5.984;2024-02-21T03:51:16;9.79;92.34
47861;HTU21D;33620;52.340;5.984;2024-02-21T03:53:41;9.79;92.18
47861;HTU21D;33620;52.340;5.984;2024-02-21T03:56:06;9.79;92.22
47861;HTU21D;33620;52.340;5.984;2024-02-21T03:58:32;9.82;92.31
47861;HTU21D;33620;52.340;5.984;2024-02-21T04:00:59;9.79;92.26
47861;HTU21D;33620;52.340;5.984;2024-02-21T04:03:25;9.80;92.40
47861;HTU21D;33620;52.340;5.984;2024-02-21T04:05:50;9.81;92.38
47861;HTU21D;33620;52.340;5.984;2024-02-21T04:08:15;9.83;92.39
47861;HTU21D;33620;52.340;5.984;2024-02-21T04:10:41;9.81;92.37
47861;HTU21D;33620;52.340;5.984;2024-02-21T04:13:06;9.82;92.47
47861;HTU21D;33620;52.340;5.984;2024-02-21T04:15:32;9.83;92.43
47861;HTU21D;33620;52.340;5.984;2024-02-21T04:17:57;9.84;92.41
47861;HTU21D;33620;52.340;5.984;2024-02-21T04:20:22;9.83;92.34
47861;HTU21D;33620;52.340;5.984;2024-02-21T04:22:48;9.78;92.25
47861;HTU21D;33620;52.340;5.984;2024-02-21T04:25:13;9.81;92.34
47861;HTU21D;33620;52.340;5.984;2024-02-21T04:27:39;9.81;92.37
47861;HTU21D;33620;52.340;5.984;2024-02-21T04:30:04;9.82;92.34
47861;HTU21D;33620;52.340;5.984;2024-02-21T04:32:30;9.82;92.27
47861;HTU21D;33620;52.340;5.984;2024-02-21T04:34:55;9.82;92.20
47861;HTU21D;33620;52.340;5.984;2024-02-21T04:37:20;9.82;91.98
47861;HTU21D;33620;52.340;5.984;2024-02-21T04:39:46;9.80;92.10
47861;HTU21D;33620;52.340;5.984;2024-02-21T04:42:11;9.79;92.08
47861;HTU21D;33620;52.340;5.984;2024-02-21T04:44:36;9.80;92.15
47861;HTU21D;33620;52.340;5.984;2024-02-21T04:47:01;9.78;92.17
47861;HTU21D;33620;52.340;5.984;2024-02-21T04:49:28;9.79;92.18
47861;HTU21D;33620;52.340;5.984;2024-02-21T04:51:54;9.74;92.18
47861;HTU21D;33620;52.340;5.984;2024-02-21T04:54:19;9.75;92.24
47861;HTU21D;33620;52.340;5.984;2024-02-21T04:56:44;9.71;92.25
47861;HTU21D;33620;52.340;5.984;2024-02-21T04:59:09;9.65;92.34
47861;HTU21D;33620;52.340;5.984;2024-02-21T05:01:35;9.69;92.40
47861;HTU21D;33620;52.340;5.984;2024-02-21T05:04:00;9.69;92.35
47861;HTU21D;33620;52.340;5.984;2024-02-21T05:06:25;9.71;92.31
47861;HTU21D;33620;52.340;5.984;2024-02-21T05:08:50;9.72;92.40
47861;HTU21D;33620;52.340;5.984;2024-02-21T05:11:16;9.64;92.40
47861;HTU21D;33620;52.340;5.984;2024-02-21T05:13:41;9.65;92.38
47861;HTU21D;33620;52.340;5.984;2024-02-21T05:16:06;9.66;92.40
47861;HTU21D;33620;52.340;5.984;2024-02-21T05:18:32;9.67;92.39
47861;HTU21D;33620;52.340;5.984;2024-02-21T05:20:58;9.61;92.47
47861;HTU21D;33620;52.340;5.984;2024-02-21T05:23:23;9.62;92.40
47861;HTU21D;33620;52.340;5.984;2024-02-21T05:25:49;9.65;92.31
47861;HTU21D;33620;52.340;5.984;2024-02-21T05:28:14;9.67;92.31
47861;HTU21D;33620;52.340;5.984;2024-02-21T05:30:39;9.66;92.09
47861;HTU21D;33620;52.340;5.984;2024-02-21T05:33:06;9.69;92.05
47861;HTU21D;33620;52.340;5.984;2024-02-21T05:35:31;9.65;92.01
47861;HTU21D;33620;52.340;5.984;2024-02-21T05:37:57;9.65;92.09
47861;HTU21D;33620;52.340;5.984;2024-02-21T05:40:22;9.65;91.99
47861;HTU21D;33620;52.340;5.984;2024-02-21T05:42:48;9.67;92.14
47861;HTU21D;33620;52.340;5.984;2024-02-21T05:45:13;9.69;92.15
47861;HTU21D;33620;52.340;5.984;2024-02-21T05:47:40;9.68;92.08
47861;HTU21D;33620;52.340;5.984;2024-02-21T05:50:06;9.61;92.00
47861;HTU21D;33620;52.340;5.984;2024-02-21T05:52:31;9.65;92.11
47861;HTU21D;33620;52.340;5.984;2024-02-21T05:54:56;9.67;92.11
47861;HTU21D;33620;52.340;5.984;2024-02-21T05:57:22;9.68;92.08
47861;HTU21D;33620;52.340;5.984;2024-02-21T05:59:47;9.68;91.82
47861;HTU21D;33620;52.340;5.984;2024-02-21T06:02:12;9.69;91.88
47861;HTU21D;33620;52.340;5.984;2024-02-21T06:04:38;9.68;91.85
47861;HTU21D;33620;52.340;5.984;2024-02-21T06:07:04;9.65;91.86
47861;HTU21D;33620;52.340;5.984;2024-02-21T06:09:29;9.59;92.09
47861;HTU21D;33620;52.340;5.984;2024-02-21T06:11:55;9.63;92.23
47861;HTU21D;33620;52.340;5.984;2024-02-21T06:14:20;9.64;92.18
47861;HTU21D;33620;52.340;5.984;2024-02-21T06:16:45;9.65;91.98
47861;HTU21D;33620;52.340;5.984;2024-02-21T06:19:11;9.67;92.11
47861;HTU21D;33620;52.340;5.984;2024-02-21T06:21:36;9.66;91.96
47861;HTU21D;33620;52.340;5.984;2024-02-21T06:24:02;9.66;91.83
47861;HTU21D;33620;52.340;5.984;2024-02-21T06:26:27;9.66;91.89
47861;HTU21D;33620;52.340;5.984;2024-02-21T06:28:53;9.68;91.92
47861;HTU21D;33620;52.340;5.984;2024-02-21T06:31:18;9.67;91.95
47861;HTU21D;33620;52.340;5.984;2024-02-21T06:33:43;9.64;91.86
47861;HTU21D;33620;52.340;5.984;2024-02-21T06:36:08;9.64;92.02
47861;HTU21D;33620;52.340;5.984;2024-02-21T06:38:34;9.63;91.94
47861;HTU21D;33620;52.340;5.984;2024-02-21T06:40:59;9.63;92.02
47861;HTU21D;33620;52.340;5.984;2024-02-21T06:43:25;9.63;92.01
47861;HTU21D;33620;52.340;5.984;2024-02-21T06:45:51;9.55;91.98
47861;HTU21D;33620;52.340;5.984;2024-02-21T06:48:16;9.59;92.14
47861;HTU21D;33620;52.340;5.984;2024-02-21T06:50:42;9.60;92.24
47861;HTU21D;33620;52.340;5.984;2024-02-21T06:53:07;9.62;92.18
47861;HTU21D;33620;52.340;5.984;2024-02-21T06:55:32;9.61;92.05
47861;HTU21D;33620;52.340;5.984;2024-02-21T06:57:58;9.54;91.76
47861;HTU21D;33620;52.340;5.984;2024-02-21T07:00:23;9.55;91.90
47861;HTU21D;33620;52.340;5.984;2024-02-21T07:02:48;9.56;91.93
47861;HTU21D;33620;52.340;5.984;2024-02-21T07:05:14;9.51;91.94
47861;HTU21D;33620;52.340;5.984;2024-02-21T07:07:39;9.53;92.18
47861;HTU21D;33620;52.340;5.984;2024-02-21T07:10:05;9.53;91.94
47861;HTU21D;33620;52.340;5.984;2024-02-21T07:12:31;9.54;92.12
47861;HTU21D;33620;52.340;5.984;2024-02-21T07:14:56;9.56;92.06
47861;HTU21D;33620;52.340;5.984;2024-02-21T07:17:21;9.53;91.79
47861;HTU21D;33620;52.340;5.984;2024-02-21T07:19:46;9.52;91.82
47861;HTU21D;33620;52.340;5.984;2024-02-21T07:22:12;9.48;91.92
47861;HTU21D;33620;52.340;5.984;2024-02-21T07:24:37;9.51;91.90
47861;HTU21D;33620;52.340;5.984;2024-02-21T07:27:02;9.49;91.76
47861;HTU21D;33620;52.340;5.984;2024-02-21T07:29:32;9.48;91.82
47861;HTU21D;33620;52.340;5.984;2024-02-21T07:31:57;9.51;91.82
47861;HTU21D;33620;52.340;5.984;2024-02-21T07:34:23;9.53;91.82
47861;HTU21D;33620;52.340;5.984;2024-02-21T07:36:48;9.53;91.66
47861;HTU21D;33620;52.340;5.984;2024-02-21T07:39:13;9.57;91.83
47861;HTU21D;33620;52.340;5.984;2024-02-21T07:41:38;9.57;91.68
47861;HTU21D;33620;52.340;5.984;2024-02-21T07:44:05;9.57;91.56
47861;HTU21D;33620;52.340;5.984;2024-02-21T07:46:30;9.55;91.53
47861;HTU21D;33620;52.340;5.984;2024-02-21T07:48:56;9.56;91.46
47861;HTU21D;33620;52.340;5.984;2024-02-21T07:51:21;9.59;91.50
47861;HTU21D;33620;52.340;5.984;2024-02-21T07:53:46;9.57;91.50
47861;HTU21D;33620;52.340;5.984;2024-02-21T07:56:12;9.56;91.37
47861;HTU21D;33620;52.340;5.984;2024-02-21T07:58:38;9.54;91.39
47861;HTU21D;33620;52.340;5.984;2024-02-21T08:01:04;9.57;91.21
47861;HTU21D;33620;52.340;5.984;2024-02-21T08:03:29;9.56;91.15
47861;HTU21D;33620;52.340;5.984;2024-02-21T08:05:54;9.60;91.31
47861;HTU21D;33620;52.340;5.984;2024-02-21T08:08:20;9.62;91.10
47861;HTU21D;33620;52.340;5.984;2024-02-21T08:10:47;9.66;91.18
47861;HTU21D;33620;52.340;5.984;2024-02-21T08:13:12;9.64;90.77
47861;HTU21D;33620;52.340;5.984;2024-02-21T08:15:38;9.68;90.84
47861;HTU21D;33620;52.340;5.984;2024-02-21T08:18:05;9.60;90.59
47861;HTU21D;33620;52.340;5.984;2024-02-21T08:20:30;9.66;90.60
47861;HTU21D;33620;52.340;5.984;2024-02-21T08:25:09;9.70;90.29
47861;HTU21D;33620;52.340;5.984;2024-02-21T08:27:35;9.74;90.41
47861;HTU21D;33620;52.340;5.984;2024-02-21T08:30:00;9.76;90.31
47861;HTU21D;33620;52.340;5.984;2024-02-21T08:32:26;9.79;90.28
47861;HTU21D;33620;52.340;5.984;2024-02-21T08:34:51;9.80;90.29
47861;HTU21D;33620;52.340;5.984;2024-02-21T08:37:16;9.83;90.32
47861;HTU21D;33620;52.340;5.984;2024-02-21T08:39:42;9.82;90.23
47861;HTU21D;33620;52.340;5.984;2024-02-21T08:42:07;9.85;90.17
47861;HTU21D;33620;52.340;5.984;2024-02-21T08:44:32;9.84;90.00
47861;HTU21D;33620;52.340;5.984;2024-02-21T08:46:58;9.76;89.52
47861;HTU21D;33620;52.340;5.984;2024-02-21T08:49:23;9.80;89.99
47861;HTU21D;33620;52.340;5.984;2024-02-21T08:51:48;9.76;89.66
47861;HTU21D;33620;52.340;5.984;2024-02-21T08:54:14;9.79;89.87
47861;HTU21D;33620;52.340;5.984;2024-02-21T08:56:39;9.78;89.78
47861;HTU21D;33620;52.340;5.984;2024-02-21T08:59:04;9.72;89.36
47861;HTU21D;33620;52.340;5.984;2024-02-21T09:01:30;9.74;89.57
47861;HTU21D;33620;52.340;5.984;2024-02-21T09:03:55;9.75;89.81
47861;HTU21D;33620;52.340;5.984;2024-02-21T09:06:22;9.69;89.74
47861;HTU21D;33620;52.340;5.984;2024-02-21T09:08:48;9.71;89.87
47861;HTU21D;33620;52.340;5.984;2024-02-21T09:11:13;9.64;89.38
47861;HTU21D;33620;52.340;5.984;2024-02-21T09:13:38;9.70;89.66
47861;HTU21D;33620;52.340;5.984;2024-02-21T09:16:04;9.77;89.64
47861;HTU21D;33620;52.340;5.984;2024-02-21T09:18:29;9.75;89.02
47861;HTU21D;33620;52.340;5.984;2024-02-21T09:20:55;9.81;89.53
47861;HTU21D;33620;52.340;5.984;2024-02-21T09:23:20;9.83;89.31
47861;HTU21D;33620;52.340;5.984;2024-02-21T09:25:46;9.89;89.36
47861;HTU21D;33620;52.340;5.984;2024-02-21T09:28:12;9.91;89.09
47861;HTU21D;33620;52.340;5.984;2024-02-21T09:30:38;9.95;89.21
47861;HTU21D;33620;52.340;5.984;2024-02-21T09:33:04;9.97;88.86
47861;HTU21D;33620;52.340;5.984;2024-02-21T09:35:30;9.95;88.76
47861;HTU21D;33620;52.340;5.984;2024-02-21T09:37:56;10.00;89.06
47861;HTU21D;33620;52.340;5.984;2024-02-21T09:40:21;10.03;88.38
47861;HTU21D;33620;52.340;5.984;2024-02-21T09:42:47;10.07;88.56
47861;HTU21D;33620;52.340;5.984;2024-02-21T09:45:20;10.10;88.41
47861;HTU21D;33620;52.340;5.984;2024-02-21T09:50:27;10.18;88.15
47861;HTU21D;33620;52.340;5.984;2024-02-21T09:52:54;10.21;88.21
47861;HTU21D;33620;52.340;5.984;2024-02-21T09:55:20;10.22;87.98
47861;HTU21D;33620;52.340;5.984;2024-02-21T09:57:46;10.25;87.84
47861;HTU21D;33620;52.340;5.984;2024-02-21T10:00:13;10.33;87.96
47861;HTU21D;33620;52.340;5.984;2024-02-21T10:02:49;10.37;87.64
47861;HTU21D;33620;52.340;5.984;2024-02-21T10:05:15;10.37;87.34
47861;HTU21D;33620;52.340;5.984;2024-02-21T10:07:41;10.39;87.13
47861;HTU21D;33620;52.340;5.984;2024-02-21T10:10:07;10.34;86.55
47861;HTU21D;33620;52.340;5.984;2024-02-21T10:12:32;10.38;86.92
47861;HTU21D;33620;52.340;5.984;2024-02-21T10:15:06;10.41;86.49
47861;HTU21D;33620;52.340;5.984;2024-02-21T10:17:35;10.45;86.75
47861;HTU21D;33620;52.340;5.984;2024-02-21T10:20:08;10.45;86.06
47861;HTU21D;33620;52.340;5.984;2024-02-21T10:22:34;10.49;86.13
47861;HTU21D;33620;52.340;5.984;2024-02-21T10:25:14;10.54;86.26
47861;HTU21D;33620;52.340;5.984;2024-02-21T10:27:40;10.55;85.97
47861;HTU21D;33620;52.340;5.984;2024-02-21T10:30:07;10.54;85.57
47861;HTU21D;33620;52.340;5.984;2024-02-21T10:32:33;10.55;85.37
47861;HTU21D;33620;52.340;5.984;2024-02-21T10:35:02;10.53;85.27
47861;HTU21D;33620;52.340;5.984;2024-02-21T10:37:30;10.51;85.08
47861;HTU21D;33620;52.340;5.984;2024-02-21T10:39:55;10.53;84.74
47861;HTU21D;33620;52.340;5.984;2024-02-21T10:42:22;10.53;85.11
47861;HTU21D;33620;52.340;5.984;2024-02-21T10:44:50;10.55;84.98
47861;HTU21D;33620;52.340;5.984;2024-02-21T10:47:17;10.51;85.02
47861;HTU21D;33620;52.340;5.984;2024-02-21T10:49:50;10.48;84.76
47861;HTU21D;33620;52.340;5.984;2024-02-21T10:52:37;10.49;84.79
47861;HTU21D;33620;52.340;5.984;2024-02-21T10:55:10;10.46;84.51
47861;HTU21D;33620;52.340;5.984;2024-02-21T10:57:39;10.42;84.46
47861;HTU21D;33620;52.340;5.984;2024-02-21T11:00:05;10.45;84.84
47861;HTU21D;33620;52.340;5.984;2024-02-21T11:02:33;10.46;84.58
47861;HTU21D;33620;52.340;5.984;2024-02-21T11:04:59;10.49;84.73
47861;HTU21D;33620;52.340;5.984;2024-02-21T11:07:26;10.54;84.74
47861;HTU21D;33620;52.340;5.984;2024-02-21T11:09:53;10.56;84.64
47861;HTU21D;33620;52.340;5.984;2024-02-21T11:12:21;10.62;84.56
47861;HTU21D;33620;52.340;5.984;2024-02-21T11:14:47;10.58;84.26
47861;HTU21D;33620;52.340;5.984;2024-02-21T11:17:17;10.62;84.43
47861;HTU21D;33620;52.340;5.984;2024-02-21T11:19:43;10.64;84.44
47861;HTU21D;33620;52.340;5.984;2024-02-21T11:22:16;10.66;84.54
47861;HTU21D;33620;52.340;5.984;2024-02-21T11:24:42;10.67;84.88
47861;HTU21D;33620;52.340;5.984;2024-02-21T11:27:21;10.66;84.38
47861;HTU21D;33620;52.340;5.984;2024-02-21T11:29:54;10.63;84.07
47861;HTU21D;33620;52.340;5.984;2024-02-21T11:32:21;10.64;84.28
47861;HTU21D;33620;52.340;5.984;2024-02-21T11:37:19;10.65;84.58
47861;HTU21D;33620;52.340;5.984;2024-02-21T11:39:44;10.66;84.84
47861;HTU21D;33620;52.340;5.984;2024-02-21T11:42:09;10.67;85.09
47861;HTU21D;33620;52.340;5.984;2024-02-21T11:44:36;10.68;84.93
47861;HTU21D;33620;52.340;5.984;2024-02-21T11:47:07;10.63;84.59
47861;HTU21D;33620;52.340;5.984;2024-02-21T11:49:43;10.64;84.92
47861;HTU21D;33620;52.340;5.984;2024-02-21T11:52:08;10.62;84.66
47861;HTU21D;33620;52.340;5.984;2024-02-21T11:54:34;10.56;84.64
47861;HTU21D;33620;52.340;5.984;2024-02-21T11:57:00;10.55;84.90
47861;HTU21D;33620;52.340;5.984;2024-02-21T11:59:26;10.54;84.73
47861;HTU21D;33620;52.340;5.984;2024-02-21T12:01:53;10.51;85.06
47861;HTU21D;33620;52.340;5.984;2024-02-21T12:04:19;10.49;84.90
47861;HTU21D;33620;52.340;5.984;2024-02-21T12:06:45;10.50;85.09
47861;HTU21D;33620;52.340;5.984;2024-02-21T12:09:14;10.46;84.91
47861;HTU21D;33620;52.340;5.984;2024-02-21T12:11:41;10.50;85.27
47861;HTU21D;33620;52.340;5.984;2024-02-21T12:14:06;10.48;84.89
47861;HTU21D;33620;52.340;5.984;2024-02-21T12:16:33;10.51;85.23
47861;HTU21D;33620;52.340;5.984;2024-02-21T12:19:00;10.45;84.52
47861;HTU21D;33620;52.340;5.984;2024-02-21T12:21:26;10.44;84.93
47861;HTU21D;33620;52.340;5.984;2024-02-21T12:23:54;10.40;84.39
47861;HTU21D;33620;52.340;5.984;2024-02-21T12:26:19;10.41;84.61
47861;HTU21D;33620;52.340;5.984;2024-02-21T12:28:45;10.46;84.81
47861;HTU21D;33620;52.340;5.984;2024-02-21T12:31:10;10.46;84.82
47861;HTU21D;33620;52.340;5.984;2024-02-21T12:33:36;10.46;84.84
47861;HTU21D;33620;52.340;5.984;2024-02-21T12:36:01;10.50;84.79
47861;HTU21D;33620;52.340;5.984;2024-02-21T12:38:29;10.52;84.51
47861;HTU21D;33620;52.340;5.984;2024-02-21T12:40:54;10.59;84.91
47861;HTU21D;33620;52.340;5.984;2024-02-21T12:43:20;10.65;84.83
47861;HTU21D;33620;52.340;5.984;2024-02-21T12:45:45;10.71;84.67
47861;HTU21D;33620;52.340;5.984;2024-02-21T12:48:11;10.77;84.51
47861;HTU21D;33620;52.340;5.984;2024-02-21T12:50:37;10.79;84.15
47861;HTU21D;33620;52.340;5.984;2024-02-21T12:53:03;10.84;84.44
47861;HTU21D;33620;52.340;5.984;2024-02-21T12:55:28;10.83;84.06
47861;HTU21D;33620;52.340;5.984;2024-02-21T12:57:54;10.81;84.05
47861;HTU21D;33620;52.340;5.984;2024-02-21T13:00:19;10.82;83.58
47861;HTU21D;33620;52.340;5.984;2024-02-21T13:02:46;10.81;83.88
47861;HTU21D;33620;52.340;5.984;2024-02-21T13:05:12;10.84;83.94
47861;HTU21D;33620;52.340;5.984;2024-02-21T13:07:37;10.86;84.10
47861;HTU21D;33620;52.340;5.984;2024-02-21T13:10:02;10.88;84.02
47861;HTU21D;33620;52.340;5.984;2024-02-21T13:12:28;10.93;84.18
47861;HTU21D;33620;52.340;5.984;2024-02-21T13:14:55;10.94;83.84
47861;HTU21D;33620;52.340;5.984;2024-02-21T13:17:20;10.95;83.70
47861;HTU21D;33620;52.340;5.984;2024-02-21T13:19:47;10.98;83.72
47861;HTU21D;33620;52.340;5.984;2024-02-21T13:22:13;10.98;83.37
47861;HTU21D;33620;52.340;5.984;2024-02-21T13:24:38;10.97;83.38
47861;HTU21D;33620;52.340;5.984;2024-02-21T13:27:03;11.00;83.26
47861;HTU21D;33620;52.340;5.984;2024-02-21T13:29:29;10.99;82.97
47861;HTU21D;33620;52.340;5.984;2024-02-21T13:31:54;11.01;83.15
47861;HTU21D;33620;52.340;5.984;2024-02-21T13:34:20;11.05;83.26
47861;HTU21D;33620;52.340;5.984;2024-02-21T13:36:45;11.04;83.11
47861;HTU21D;33620;52.340;5.984;2024-02-21T13:39:10;11.03;82.78
47861;HTU21D;33620;52.340;5.984;2024-02-21T13:41:41;11.05;83.05
47861;HTU21D;33620;52.340;5.984;2024-02-21T13:44:07;11.03;82.39
47861;HTU21D;33620;52.340;5.984;2024-02-21T13:46:32;11.01;82.54
47861;HTU21D;33620;52.340;5.984;2024-02-21T13:49:03;11.00;82.65
47861;HTU21D;33620;52.340;5.984;2024-02-21T13:51:33;11.01;82.36
47861;HTU21D;33620;52.340;5.984;2024-02-21T13:53:59;10.98;82.17
47861;HTU21D;33620;52.340;5.984;2024-02-21T13:56:24;10.98;82.04
47861;HTU21D;33620;52.340;5.984;2024-02-21T13:58:50;10.98;82.40
47861;HTU21D;33620;52.340;5.984;2024-02-21T14:01:15;10.96;82.08
47861;HTU21D;33620;52.340;5.984;2024-02-21T14:03:41;10.93;82.04
47861;HTU21D;33620;52.340;5.984;2024-02-21T14:06:06;10.96;82.55
47861;HTU21D;33620;52.340;5.984;2024-02-21T14:08:31;10.97;82.76
47861;HTU21D;33620;52.340;5.984;2024-02-21T14:10:59;10.96;82.55
47861;HTU21D;33620;52.340;5.984;2024-02-21T14:13:25;10.97;82.52
47861;HTU21D;33620;52.340;5.984;2024-02-21T14:15:51;10.95;82.17
47861;HTU21D;33620;52.340;5.984;2024-02-21T14:18:16;10.95;82.22
47861;HTU21D;33620;52.340;5.984;2024-02-21T14:20:42;10.96;82.28
47861;HTU21D;33620;52.340;5.984;2024-02-21T14:23:08;10.95;82.26
47861;HTU21D;33620;52.340;5.984;2024-02-21T14:25:33;10.97;82.24
47861;HTU21D;33620;52.340;5.984;2024-02-21T14:27:59;10.99;82.47
47861;HTU21D;33620;52.340;5.984;2024-02-21T14:30:26;11.01;82.59
47861;HTU21D;33620;52.340;5.984;2024-02-21T14:32:51;11.02;82.63
47861;HTU21D;33620;52.340;5.984;2024-02-21T14:35:16;11.03;82.53
47861;HTU21D;33620;52.340;5.984;2024-02-21T14:37:42;11.02;82.18
47861;HTU21D;33620;52.340;5.984;2024-02-21T14:40:08;11.02;82.45
47861;HTU21D;33620;52.340;5.984;2024-02-21T14:42:33;11.05;82.80
47861;HTU21D;33620;52.340;5.984;2024-02-21T14:45:00;11.05;82.97
47861;HTU21D;33620;52.340;5.984;2024-02-21T14:47:33;10.98;81.91
47861;HTU21D;33620;52.340;5.984;2024-02-21T14:49:58;11.00;82.27
47861;HTU21D;33620;52.340;5.984;2024-02-21T14:52:24;11.00;82.17
47861;HTU21D;33620;52.340;5.984;2024-02-21T14:54:50;11.04;82.44
47861;HTU21D;33620;52.340;5.984;2024-02-21T14:57:17;11.01;82.04
47861;HTU21D;33620;52.340;5.984;2024-02-21T14:59:43;11.03;82.45
47861;HTU21D;33620;52.340;5.984;2024-02-21T15:02:08;10.99;81.72
47861;HTU21D;33620;52.340;5.984;2024-02-21T15:04:34;11.01;81.84
47861;HTU21D;33620;52.340;5.984;2024-02-21T15:07:01;10.99;81.52
47861;HTU21D;33620;52.340;5.984;2024-02-21T15:09:26;11.03;81.81
47861;HTU21D;33620;52.340;5.984;2024-02-21T15:11:53;11.04;81.78
47861;HTU21D;33620;52.340;5.984;2024-02-21T15:14:18;11.00;80.86
47861;HTU21D;33620;52.340;5.984;2024-02-21T15:16:45;11.02;81.14
47861;HTU21D;33620;52.340;5.984;2024-02-21T15:19:10;11.00;80.92
47861;HTU21D;33620;52.340;5.984;2024-02-21T15:21:36;11.01;80.93
47861;HTU21D;33620;52.340;5.984;2024-02-21T15:24:01;11.00;80.85